createdAt,value
2019-06-15T00:00:01.696Z,4.53
2019-06-15T00:02:30.322Z,5.10
2019-06-15T00:04:58.776Z,4.43
2019-06-15T00:07:27.259Z,6.13
2019-06-15T00:09:55.694Z,6.30
2019-06-15T00:12:24.122Z,4.57
2019-06-15T00:14:52.561Z,5.07
2019-06-15T00:17:21.012Z,4.13
2019-06-15T00:19:49.524Z,5.60
2019-06-15T00:22:18.009Z,4.20
2019-06-15T00:24:46.458Z,4.67
2019-06-15T00:27:14.882Z,4.43
2019-06-15T00:29:43.317Z,4.40
2019-06-15T00:32:11.751Z,4.47
2019-06-15T00:34:40.191Z,4.70
2019-06-15T00:37:08.618Z,5.50
2019-06-15T00:39:37.059Z,5.17
2019-06-15T00:42:05.504Z,3.90
2019-06-15T00:44:33.963Z,3.87
2019-06-15T00:47:02.402Z,4.60
2019-06-15T00:49:30.842Z,4.80
2019-06-15T00:51:59.258Z,4.50
2019-06-15T00:54:27.725Z,4.07
2019-06-15T00:56:56.318Z,4.33
2019-06-15T00:59:24.785Z,4.13
2019-06-15T01:01:53.208Z,4.00
2019-06-15T01:04:21.632Z,4.00
2019-06-15T01:06:50.069Z,4.60
2019-06-15T01:09:18.507Z,4.93
2019-06-15T01:11:46.934Z,4.30
2019-06-15T01:14:15.366Z,4.20
2019-06-15T01:16:43.869Z,4.47
2019-06-15T01:19:12.376Z,4.50
2019-06-15T01:21:40.820Z,4.40
2019-06-15T01:24:09.237Z,4.60
2019-06-15T01:26:37.679Z,4.30
2019-06-15T01:29:06.116Z,3.50
2019-06-15T01:31:34.553Z,4.30
2019-06-15T01:34:03.138Z,4.87
2019-06-15T01:36:31.638Z,4.53
2019-06-15T01:39:00.077Z,4.60
2019-06-15T01:41:29.911Z,3.63
2019-06-15T01:43:58.363Z,4.40
2019-06-15T01:46:26.866Z,4.40
2019-06-15T01:48:55.297Z,4.10
2019-06-15T01:51:23.735Z,4.27
2019-06-15T01:53:52.165Z,4.57
2019-06-15T01:56:20.601Z,4.00
2019-06-15T01:58:49.145Z,4.20
2019-06-15T02:01:17.592Z,4.10
2019-06-15T02:03:46.025Z,4.50
2019-06-15T02:06:14.455Z,4.27
2019-06-15T02:08:42.878Z,4.30
2019-06-15T02:11:11.446Z,3.83
2019-06-15T02:13:39.886Z,5.07
2019-06-15T02:16:08.340Z,4.57
2019-06-15T02:18:36.775Z,5.23
2019-06-15T02:21:05.232Z,5.00
2019-06-15T02:23:33.724Z,4.30
2019-06-15T02:26:02.217Z,4.27
2019-06-15T02:28:30.738Z,3.53
2019-06-15T02:30:59.154Z,4.13
2019-06-15T02:33:27.586Z,4.13
2019-06-15T02:35:56.032Z,4.33
2019-06-15T02:38:24.533Z,5.20
2019-06-15T02:40:52.955Z,4.93
2019-06-15T02:43:21.638Z,4.40
2019-06-15T02:45:50.065Z,5.10
2019-06-15T02:48:18.501Z,4.90
2019-06-15T02:50:46.929Z,4.80
2019-06-15T02:53:15.363Z,4.50
2019-06-15T02:55:50.621Z,4.20
2019-06-15T02:58:13.945Z,4.80
2019-06-15T03:01:02.046Z,4.20
2019-06-15T03:03:30.483Z,4.97
2019-06-15T03:05:59.287Z,4.93
2019-06-15T03:08:27.717Z,4.40
2019-06-15T03:10:56.213Z,5.10
2019-06-15T03:13:24.659Z,4.70
2019-06-15T03:15:53.088Z,4.73
2019-06-15T03:18:21.541Z,4.20
2019-06-15T03:20:49.981Z,4.40
2019-06-15T03:23:18.466Z,5.07
2019-06-15T03:25:46.915Z,4.67
2019-06-15T03:28:15.346Z,4.90
2019-06-15T03:30:43.784Z,5.00
2019-06-15T03:33:12.221Z,4.97
2019-06-15T03:35:40.663Z,5.27
2019-06-15T03:38:09.082Z,5.07
2019-06-15T03:40:37.553Z,4.60
2019-06-15T03:43:06.041Z,5.30
2019-06-15T03:45:34.481Z,5.13
2019-06-15T03:48:02.921Z,5.40
2019-06-15T03:50:31.425Z,5.30
2019-06-15T03:52:59.894Z,4.67
2019-06-15T03:55:28.334Z,5.00
2019-06-15T03:57:56.782Z,6.00
2019-06-15T04:00:46.322Z,5.23
2019-06-15T04:03:15.294Z,6.03
2019-06-15T04:05:44.289Z,5.80
2019-06-15T04:08:12.719Z,6.57
2019-06-15T04:10:41.441Z,6.33
2019-06-15T04:13:10.112Z,6.20
2019-06-15T04:15:38.546Z,5.30
2019-06-15T04:18:06.981Z,6.80
2019-06-15T04:20:35.454Z,6.40
2019-06-15T04:23:04.159Z,6.07
2019-06-15T04:25:32.577Z,6.23
2019-06-15T04:28:01.093Z,7.50
2019-06-15T04:30:29.522Z,7.43
2019-06-15T04:32:57.964Z,7.10
2019-06-15T04:35:26.385Z,7.80
2019-06-15T04:37:54.827Z,8.20
2019-06-15T04:40:23.262Z,9.03
2019-06-15T04:42:51.694Z,8.90
2019-06-15T04:45:20.130Z,8.33
2019-06-15T04:47:48.563Z,8.83
2019-06-15T04:50:17.134Z,8.20
2019-06-15T04:52:45.616Z,8.93
2019-06-15T04:55:14.606Z,9.10
2019-06-15T04:57:43.143Z,9.53
2019-06-15T05:00:12.330Z,8.87
2019-06-15T05:02:40.766Z,9.33
2019-06-15T05:05:09.360Z,9.47
2019-06-15T05:07:37.810Z,9.03
2019-06-15T05:10:06.893Z,8.60
2019-06-15T05:12:35.832Z,9.80
2019-06-15T05:15:06.210Z,10.20
2019-06-15T05:17:34.641Z,9.20
2019-06-15T05:20:03.953Z,10.27
2019-06-15T05:22:32.389Z,10.33
2019-06-15T05:25:00.840Z,12.03
2019-06-15T05:27:30.429Z,10.80
2019-06-15T05:29:58.870Z,12.07
2019-06-15T05:32:27.390Z,11.20
2019-06-15T05:34:55.826Z,11.80
2019-06-15T05:37:24.264Z,11.17
2019-06-15T05:39:52.707Z,12.63
2019-06-15T05:42:21.510Z,12.37
2019-06-15T05:44:50.038Z,12.47
2019-06-15T05:47:18.470Z,13.40
2019-06-15T05:49:46.914Z,13.90
2019-06-15T05:52:15.350Z,14.40
2019-06-15T05:54:43.816Z,15.10
2019-06-15T05:57:21.246Z,13.87
2019-06-15T05:59:42.578Z,15.17
2019-06-15T06:02:11.015Z,16.07
2019-06-15T06:04:39.454Z,17.20
2019-06-15T06:07:08.006Z,16.60
2019-06-15T06:09:36.454Z,16.00
2019-06-15T06:12:05.154Z,18.10
2019-06-15T06:14:33.678Z,13.40
2019-06-15T06:17:02.106Z,19.03
2019-06-15T06:19:30.548Z,18.40
2019-06-15T06:21:58.986Z,19.00
2019-06-15T06:24:27.445Z,17.20
2019-06-15T06:26:55.874Z,17.10
2019-06-15T06:29:24.323Z,15.30
2019-06-15T06:31:52.757Z,14.90
2019-06-15T06:34:21.212Z,15.43
2019-06-15T06:36:49.640Z,14.47
2019-06-15T06:39:18.223Z,12.90
2019-06-15T06:41:46.662Z,13.00
2019-06-15T06:44:15.102Z,12.30
2019-06-15T06:46:43.551Z,12.10
2019-06-15T06:49:11.993Z,13.60
2019-06-15T06:51:40.442Z,15.00
2019-06-15T06:54:08.879Z,15.50
2019-06-15T06:56:37.399Z,16.27
2019-06-15T06:59:05.823Z,18.30
2019-06-15T07:01:34.274Z,17.57
2019-06-15T07:04:02.744Z,17.40
2019-06-15T07:06:31.242Z,17.97
2019-06-15T07:08:59.674Z,16.07
2019-06-15T07:11:28.120Z,15.77
2019-06-15T07:13:56.548Z,13.50
2019-06-15T07:16:24.998Z,10.50
2019-06-15T07:18:53.426Z,10.90
2019-06-15T07:21:21.916Z,10.20
2019-06-15T07:23:50.383Z,11.53
2019-06-15T07:26:18.827Z,12.23
2019-06-15T07:28:47.322Z,11.10
2019-06-15T07:31:15.805Z,10.40
2019-06-15T07:33:44.268Z,11.17
2019-06-15T07:36:12.757Z,12.47
2019-06-15T07:38:41.225Z,12.17
2019-06-15T07:41:09.664Z,12.50
2019-06-15T07:43:38.092Z,13.10
2019-06-15T07:46:06.529Z,13.03
2019-06-15T07:48:34.963Z,13.80
2019-06-15T07:51:03.593Z,15.53
2019-06-15T07:53:32.035Z,14.13
2019-06-15T07:56:01.029Z,13.83
2019-06-15T07:58:29.476Z,14.50
2019-06-15T08:00:57.905Z,15.60
2019-06-15T08:03:26.358Z,15.07
2019-06-15T08:05:54.783Z,15.13
2019-06-15T08:08:23.492Z,14.90
2019-06-15T08:10:51.986Z,13.90
2019-06-15T08:13:20.434Z,16.00
2019-06-15T08:15:48.865Z,16.17
2019-06-15T08:18:17.305Z,14.83
2019-06-15T08:20:45.747Z,14.50
2019-06-15T08:23:14.187Z,16.07
2019-06-15T08:25:42.621Z,15.50
2019-06-15T08:28:11.133Z,16.27
2019-06-15T08:30:43.721Z,16.90
2019-06-15T08:33:12.802Z,17.77
2019-06-15T08:35:41.239Z,16.33
2019-06-15T08:38:09.755Z,17.57
2019-06-15T08:40:38.212Z,15.27
2019-06-15T08:43:06.707Z,15.10
2019-06-15T08:45:35.138Z,15.67
2019-06-15T08:48:03.953Z,14.30
2019-06-15T08:50:32.394Z,13.67
2019-06-15T08:53:01.026Z,14.30
2019-06-15T08:55:29.460Z,14.13
2019-06-15T08:57:57.969Z,17.00
2019-06-15T09:00:26.901Z,15.50
2019-06-15T09:02:55.330Z,15.40
2019-06-15T09:05:23.782Z,14.57
2019-06-15T09:07:52.216Z,14.00
2019-06-15T09:10:20.657Z,12.90
2019-06-15T09:12:49.099Z,14.40
2019-06-15T09:15:20.730Z,13.73
2019-06-15T09:17:50.701Z,13.07
2019-06-15T09:20:19.141Z,11.97
2019-06-15T09:22:47.578Z,11.90
2019-06-15T09:25:16.034Z,12.37
2019-06-15T09:27:44.468Z,12.33
2019-06-15T09:30:13.182Z,11.50
2019-06-15T09:32:41.621Z,10.27
2019-06-15T09:35:10.326Z,10.37
2019-06-15T09:37:38.762Z,9.80
2019-06-15T09:40:09.926Z,9.50
2019-06-15T09:42:38.355Z,8.30
2019-06-15T09:45:08.603Z,8.33
2019-06-15T09:47:37.046Z,9.83
2019-06-15T09:50:06.618Z,8.60
2019-06-15T09:52:35.057Z,8.30
2019-06-15T09:55:05.238Z,7.60
2019-06-15T09:57:33.692Z,8.30
2019-06-15T10:00:02.963Z,6.20
2019-06-15T10:02:31.538Z,6.90
2019-06-15T10:04:59.986Z,5.93
2019-06-15T10:07:28.409Z,5.90
2019-06-15T10:09:56.838Z,6.00
2019-06-15T10:12:25.274Z,4.83
2019-06-15T10:14:53.715Z,6.50
2019-06-15T10:17:22.586Z,5.67
2019-06-15T10:19:51.029Z,6.50
2019-06-15T10:22:19.495Z,4.60
2019-06-15T10:24:48.248Z,4.40
2019-06-15T10:27:16.922Z,4.87
2019-06-15T10:29:45.352Z,5.00
2019-06-15T10:32:13.805Z,5.00
2019-06-15T10:34:42.289Z,5.80
2019-06-15T10:37:10.812Z,5.57
2019-06-15T10:39:39.322Z,5.57
2019-06-15T10:42:08.059Z,7.00
2019-06-15T10:44:36.578Z,5.70
2019-06-15T10:47:05.021Z,6.53
2019-06-15T10:49:33.518Z,7.17
2019-06-15T10:52:01.977Z,6.07
2019-06-15T10:54:30.466Z,6.93
2019-06-15T10:56:58.906Z,5.63
2019-06-15T10:59:27.344Z,10.23
2019-06-15T11:01:56.330Z,6.63
2019-06-15T11:04:24.782Z,7.73
2019-06-15T11:06:53.290Z,7.83
2019-06-15T11:09:21.714Z,7.00
2019-06-15T11:11:50.158Z,6.67
2019-06-15T11:14:18.584Z,6.10
2019-06-15T11:16:47.319Z,6.73
2019-06-15T11:19:15.804Z,7.13
2019-06-15T11:21:44.364Z,6.63
2019-06-15T11:24:12.862Z,6.00
2019-06-15T11:26:42.181Z,8.37
2019-06-15T11:29:26.114Z,6.50
2019-06-15T11:31:42.722Z,9.57
2019-06-15T11:34:11.199Z,10.20
2019-06-15T11:36:39.660Z,6.70
2019-06-15T11:39:08.742Z,17.93
2019-06-15T11:41:37.181Z,10.40
2019-06-15T11:44:05.953Z,8.77
2019-06-15T11:46:34.381Z,7.73
2019-06-15T11:49:03.166Z,7.80
2019-06-15T11:51:31.593Z,7.13
2019-06-15T11:54:00.042Z,8.00
2019-06-15T11:56:28.507Z,9.50
2019-06-15T11:58:56.950Z,11.37
2019-06-15T12:01:25.387Z,8.77
2019-06-15T12:03:53.834Z,9.27
2019-06-15T12:06:22.266Z,9.53
2019-06-15T12:08:50.750Z,7.90
2019-06-15T12:11:19.515Z,8.93
2019-06-15T12:13:47.962Z,8.50
2019-06-15T12:16:16.393Z,8.37
2019-06-15T12:18:44.837Z,8.47
2019-06-15T12:21:13.287Z,9.83
2019-06-15T12:23:41.733Z,18.70
2019-06-15T12:26:10.165Z,10.30
2019-06-15T12:28:38.868Z,12.20
2019-06-15T12:31:07.446Z,13.17
2019-06-15T12:33:35.888Z,10.10
2019-06-15T12:36:18.279Z,9.43
2019-06-15T12:38:34.698Z,10.30
2019-06-15T12:41:03.213Z,11.20
2019-06-15T12:43:31.659Z,10.20
2019-06-15T12:46:00.177Z,10.00
2019-06-15T12:48:28.615Z,9.80
2019-06-15T12:50:57.061Z,11.23
2019-06-15T12:53:25.514Z,10.43
2019-06-15T12:55:53.967Z,11.90
2019-06-15T12:58:22.393Z,15.50
2019-06-15T13:01:02.785Z,12.00
2019-06-15T13:03:33.142Z,14.03
2019-06-15T13:06:01.594Z,12.77
2019-06-15T13:08:30.034Z,11.80
2019-06-15T13:10:58.479Z,13.57
2019-06-15T13:13:29.997Z,13.60
2019-06-15T13:15:58.452Z,15.50
2019-06-15T13:18:26.960Z,15.60
2019-06-15T13:20:55.397Z,16.77
2019-06-15T13:23:23.882Z,23.90
2019-06-15T13:25:52.326Z,23.00
2019-06-15T13:28:20.762Z,24.70
2019-06-15T13:30:49.582Z,25.53
2019-06-15T13:33:18.066Z,26.73
2019-06-15T13:35:46.521Z,23.07
2019-06-15T13:38:15.008Z,24.03
2019-06-15T13:40:43.512Z,21.73
2019-06-15T13:43:12.198Z,22.87
2019-06-15T13:45:40.987Z,25.17
2019-06-15T13:48:11.656Z,26.30
2019-06-15T13:50:39.605Z,24.20
2019-06-15T13:53:08.041Z,23.57
2019-06-15T13:55:36.512Z,23.73
2019-06-15T13:58:04.944Z,24.47
2019-06-15T14:00:33.610Z,23.60
2019-06-15T14:03:02.105Z,23.60
2019-06-15T14:05:30.539Z,22.80
2019-06-15T14:07:58.977Z,23.53
2019-06-15T14:10:27.413Z,22.10
2019-06-15T14:12:55.858Z,22.33
2019-06-15T14:15:24.309Z,21.97
2019-06-15T14:17:52.827Z,21.53
2019-06-15T14:20:21.288Z,21.30
2019-06-15T14:22:49.805Z,22.17
2019-06-15T14:25:18.256Z,21.47
2019-06-15T14:27:46.757Z,21.27
2019-06-15T14:30:15.556Z,18.67
2019-06-15T14:32:44.397Z,16.70
2019-06-15T14:35:13.117Z,16.67
2019-06-15T14:37:41.570Z,16.23
2019-06-15T14:40:12.021Z,12.37
2019-06-15T14:42:40.458Z,10.27
2019-06-15T14:45:10.873Z,8.93
2019-06-15T14:47:39.386Z,10.67
2019-06-15T14:50:08.278Z,11.07
2019-06-15T14:52:36.771Z,11.40
2019-06-15T14:55:07.255Z,9.50
2019-06-15T14:57:36.192Z,10.00
2019-06-15T15:00:08.945Z,9.60
2019-06-15T15:02:37.242Z,10.80
2019-06-15T15:05:09.014Z,9.50
2019-06-15T15:07:37.461Z,9.13
2019-06-15T15:10:08.214Z,9.50
2019-06-15T15:12:37.144Z,8.87
2019-06-15T15:15:08.650Z,7.50
2019-06-15T15:17:37.362Z,6.40
2019-06-15T15:20:07.355Z,6.47
2019-06-15T15:22:37.111Z,6.00
2019-06-15T15:25:07.058Z,7.60
2019-06-15T15:27:37.506Z,4.70
2019-06-15T15:30:07.946Z,4.97
2019-06-15T15:32:57.088Z,4.90
2019-06-15T15:35:26.878Z,4.90
2019-06-15T15:37:56.742Z,4.73
2019-06-15T15:40:27.480Z,4.80
2019-06-15T15:42:56.273Z,3.73
2019-06-15T15:45:26.289Z,3.43
2019-06-15T15:47:55.012Z,5.23
2019-06-15T15:50:26.070Z,3.20
2019-06-15T15:52:53.950Z,2.80
2019-06-15T15:55:22.412Z,3.60
2019-06-15T15:57:50.907Z,2.60
2019-06-15T16:00:38.852Z,2.53
2019-06-15T16:03:07.411Z,3.17
2019-06-15T16:05:37.096Z,2.77
2019-06-15T16:08:06.721Z,2.83
2019-06-15T16:10:37.335Z,33.63
2019-06-15T16:13:06.456Z,3.00
2019-06-15T16:15:37.296Z,4.97
2019-06-15T16:18:06.739Z,3.20
2019-06-15T16:20:37.086Z,2.50
2019-06-15T16:23:07.506Z,2.87
2019-06-15T16:25:37.194Z,3.70
2019-06-15T16:28:07.036Z,2.90
2019-06-15T16:31:00.670Z,2.87
2019-06-15T16:33:07.645Z,3.10
2019-06-15T16:35:36.924Z,2.90
2019-06-15T16:38:07.019Z,3.40
2019-06-15T16:40:39.493Z,3.50
2019-06-15T16:43:07.998Z,3.07
2019-06-15T16:45:37.524Z,3.07
2019-06-15T16:48:06.593Z,3.00
2019-06-15T16:50:36.603Z,3.50
2019-06-15T16:53:06.122Z,3.73
2019-06-15T16:55:36.801Z,2.90
2019-06-15T16:58:07.114Z,3.63
2019-06-15T17:00:36.319Z,3.40
2019-06-15T17:03:19.740Z,3.20
2019-06-15T17:05:36.335Z,3.83
2019-06-15T17:08:06.962Z,4.20
2019-06-15T17:10:39.838Z,3.80
2019-06-15T17:13:08.402Z,4.73
2019-06-15T17:15:37.417Z,4.60
2019-06-15T17:18:06.394Z,3.90
2019-06-15T17:20:46.662Z,4.00
2019-06-15T17:23:16.433Z,4.33
2019-06-15T17:25:45.080Z,5.40
2019-06-15T17:28:14.073Z,6.00
2019-06-15T17:30:43.990Z,6.80
2019-06-15T17:33:12.474Z,7.50
2019-06-15T17:35:55.047Z,7.17
2019-06-15T17:38:11.073Z,8.10
2019-06-15T17:40:39.514Z,7.27
2019-06-15T17:43:07.989Z,8.43
2019-06-15T17:45:37.534Z,8.63
2019-06-15T17:48:06.687Z,7.07
2019-06-15T17:50:37.823Z,6.33
2019-06-15T17:53:07.020Z,5.93
2019-06-15T17:55:36.969Z,5.53
2019-06-15T17:58:06.692Z,4.57
2019-06-15T18:00:43.248Z,4.00
2019-06-15T18:03:12.832Z,3.80
2019-06-15T18:05:41.570Z,3.30
2019-06-15T18:08:11.510Z,3.23
2019-06-15T18:10:40.026Z,3.00
2019-06-15T18:13:08.834Z,2.97
2019-06-15T18:15:37.549Z,3.00
2019-06-15T18:18:07.098Z,2.83
2019-06-15T18:20:36.535Z,2.90
2019-06-15T18:23:06.014Z,3.20
2019-06-15T18:25:37.055Z,3.10
2019-06-15T18:28:06.381Z,2.70
2019-06-15T18:30:37.093Z,2.90
2019-06-15T18:33:07.103Z,3.40
2019-06-15T18:35:36.246Z,2.50
2019-06-15T18:38:07.218Z,3.10
2019-06-15T18:40:37.162Z,3.20
2019-06-15T18:43:07.330Z,2.40
2019-06-15T18:45:36.220Z,2.50
2019-06-15T18:48:06.225Z,2.90
2019-06-15T18:50:42.168Z,2.93
2019-06-15T18:53:10.737Z,2.30
2019-06-15T18:55:39.167Z,2.70
2019-06-15T18:58:07.589Z,2.33
2019-06-15T19:00:37.123Z,2.07
2019-06-15T19:03:07.020Z,2.27
2019-06-15T19:05:37.340Z,1.93
2019-06-15T19:08:06.984Z,1.60
2019-06-15T19:10:37.012Z,1.93
2019-06-15T19:13:07.535Z,2.07
2019-06-15T19:15:37.702Z,1.50
2019-06-15T19:18:07.463Z,2.17
2019-06-15T19:20:37.356Z,1.63
2019-06-15T19:23:07.138Z,1.80
2019-06-15T19:25:36.470Z,1.60
2019-06-15T19:28:05.812Z,2.10
2019-06-15T19:30:37.135Z,1.57
2019-06-15T19:33:05.602Z,1.43
2019-06-15T19:35:36.270Z,1.63
2019-06-15T19:38:06.255Z,1.43
2019-06-15T19:40:37.710Z,1.40
2019-06-15T19:43:06.573Z,1.60
2019-06-15T19:45:37.035Z,1.90
2019-06-15T19:48:06.646Z,1.67
2019-06-15T19:50:36.238Z,1.40
2019-06-15T19:53:06.963Z,1.73
2019-06-15T19:55:36.310Z,1.57
2019-06-15T19:58:07.344Z,2.07
2019-06-15T20:00:36.566Z,2.13
2019-06-15T20:03:07.096Z,1.67
2019-06-15T20:05:37.066Z,1.80
2019-06-15T20:08:06.978Z,1.70
2019-06-15T20:10:36.989Z,1.70
2019-06-15T20:13:07.204Z,2.50
2019-06-15T20:15:37.707Z,1.70
2019-06-15T20:18:06.963Z,1.80
2019-06-15T20:20:37.014Z,1.77
2019-06-15T20:23:07.205Z,2.00
2019-06-15T20:25:36.906Z,2.00
2019-06-15T20:28:07.149Z,1.67
2019-06-15T20:30:37.184Z,1.50
2019-06-15T20:33:07.995Z,1.30
2019-06-15T20:35:36.416Z,1.60
2019-06-15T20:38:04.909Z,1.90
2019-06-15T20:40:33.337Z,1.30
2019-06-15T20:43:01.791Z,1.60
2019-06-15T20:45:31.569Z,1.23
2019-06-15T20:48:00.453Z,1.37
2019-06-15T20:50:28.956Z,2.00
2019-06-15T20:52:58.000Z,1.97
2019-06-15T20:55:26.728Z,1.80
2019-06-15T20:57:56.810Z,1.80
2019-06-15T21:00:26.381Z,1.90
2019-06-15T21:02:56.258Z,1.77
2019-06-15T21:05:34.736Z,1.40
2019-06-15T21:07:57.670Z,2.53
2019-06-15T21:10:26.432Z,2.10
2019-06-15T21:12:55.424Z,2.57
2019-06-15T21:15:26.990Z,2.90
2019-06-15T21:17:57.092Z,2.10
2019-06-15T21:20:26.758Z,2.10
2019-06-15T21:22:57.239Z,2.37
2019-06-15T21:25:26.491Z,2.20
2019-06-15T21:27:56.775Z,2.00
2019-06-15T21:30:27.128Z,2.27
2019-06-15T21:32:56.039Z,2.10
2019-06-15T21:35:26.842Z,2.40
2019-06-15T21:37:57.224Z,2.40
2019-06-15T21:40:27.318Z,1.67
2019-06-15T21:42:56.271Z,2.13
2019-06-15T21:45:25.021Z,2.47
2019-06-15T21:47:55.879Z,3.43
2019-06-15T21:50:23.630Z,2.50
2019-06-15T21:52:52.201Z,2.30
2019-06-15T21:55:20.614Z,2.40
2019-06-15T21:57:49.722Z,2.20
2019-06-15T22:00:29.697Z,3.10
2019-06-15T22:03:01.361Z,2.47
2019-06-15T22:05:28.286Z,2.37
2019-06-15T22:07:56.894Z,3.07
2019-06-15T22:10:26.537Z,2.50
2019-06-15T22:12:57.202Z,2.50
2019-06-15T22:15:26.592Z,3.13
2019-06-15T22:17:55.174Z,2.27
2019-06-15T22:20:23.618Z,2.70
2019-06-15T22:22:53.780Z,2.90
2019-06-15T22:25:22.373Z,3.10
2019-06-15T22:27:50.514Z,2.67
2019-06-15T22:30:18.941Z,2.50
2019-06-15T22:32:47.463Z,2.77
2019-06-15T22:35:16.486Z,2.53
2019-06-15T22:37:46.806Z,2.30
2019-06-15T22:40:16.658Z,2.53
2019-06-15T22:42:47.018Z,2.33
2019-06-15T22:45:17.333Z,2.87
2019-06-15T22:47:46.798Z,2.57
2019-06-15T22:50:16.139Z,2.23
2019-06-15T22:52:47.174Z,2.70
2019-06-15T22:55:16.562Z,2.90
2019-06-15T22:57:46.153Z,3.07
2019-06-15T23:00:17.118Z,2.13
2019-06-15T23:02:46.149Z,2.77
2019-06-15T23:05:17.141Z,2.80
2019-06-15T23:07:47.183Z,2.93
2019-06-15T23:10:16.656Z,2.70
2019-06-15T23:12:46.405Z,2.67
2019-06-15T23:15:17.467Z,2.60
2019-06-15T23:17:46.683Z,2.17
2019-06-15T23:20:17.092Z,2.77
2019-06-15T23:22:46.792Z,2.87
2019-06-15T23:25:16.751Z,2.43
2019-06-15T23:27:46.960Z,2.70
2019-06-15T23:30:16.337Z,2.50
2019-06-15T23:32:46.905Z,2.43
2019-06-15T23:35:16.842Z,2.80
2019-06-15T23:37:46.468Z,2.63
2019-06-15T23:40:18.978Z,3.03
2019-06-15T23:42:48.870Z,3.00
2019-06-15T23:45:18.744Z,3.80
2019-06-15T23:47:47.518Z,2.80
2019-06-15T23:50:17.981Z,2.37
2019-06-15T23:52:49.126Z,2.63
2019-06-15T23:55:19.707Z,2.80
2019-06-15T23:57:48.137Z,3.77
